createdAt,value
2019-03-08T00:00:48.950Z,1.10
2019-03-08T00:03:17.809Z,1.07
2019-03-08T00:05:46.532Z,1.00
2019-03-08T00:08:15.296Z,1.10
2019-03-08T00:10:44.033Z,0.90
2019-03-08T00:13:12.857Z,0.90
2019-03-08T00:15:41.585Z,1.00
2019-03-08T00:18:10.348Z,1.03
2019-03-08T00:20:39.220Z,1.10
2019-03-08T00:23:07.950Z,1.00
2019-03-08T00:25:36.734Z,0.98
2019-03-08T00:28:05.556Z,1.22
2019-03-08T00:30:34.317Z,1.02
2019-03-08T00:33:03.118Z,0.90
2019-03-08T00:35:31.956Z,0.98
2019-03-08T00:38:00.700Z,0.80
2019-03-08T00:40:29.459Z,0.90
2019-03-08T00:42:58.465Z,1.00
2019-03-08T00:45:27.298Z,0.90
2019-03-08T00:47:56.029Z,0.88
2019-03-08T00:50:24.795Z,0.80
2019-03-08T00:52:53.528Z,1.00
2019-03-08T00:55:22.289Z,0.70
2019-03-08T00:57:51.051Z,1.15
2019-03-08T01:00:21.379Z,1.20
2019-03-08T01:02:50.134Z,1.05
2019-03-08T01:05:19.364Z,1.00
2019-03-08T01:07:48.109Z,1.10
2019-03-08T01:10:19.244Z,1.10
2019-03-08T01:12:48.206Z,1.20
2019-03-08T01:15:18.465Z,1.20
2019-03-08T01:17:47.337Z,1.05
2019-03-08T01:20:20.022Z,1.10
2019-03-08T01:22:49.052Z,1.00
2019-03-08T01:25:18.286Z,1.00
2019-03-08T01:28:09.781Z,0.90
2019-03-08T01:30:39.511Z,0.98
2019-03-08T01:33:08.477Z,0.90
2019-03-08T01:35:37.501Z,0.90
2019-03-08T01:38:06.504Z,0.90
2019-03-08T01:40:35.314Z,1.07
2019-03-08T01:43:04.681Z,0.85
2019-03-08T01:45:33.484Z,0.80
2019-03-08T01:48:02.345Z,0.72
2019-03-08T01:50:31.086Z,0.70
2019-03-08T01:52:59.905Z,0.90
2019-03-08T01:55:28.638Z,0.80
2019-03-08T01:57:57.399Z,0.80
2019-03-08T02:00:26.206Z,0.88
2019-03-08T02:02:54.933Z,0.90
2019-03-08T02:05:23.707Z,0.90
2019-03-08T02:07:52.597Z,0.72
2019-03-08T02:10:21.366Z,0.70
2019-03-08T02:12:50.109Z,0.70
2019-03-08T02:15:20.373Z,0.70
2019-03-08T02:17:49.543Z,0.75
2019-03-08T02:20:22.604Z,0.80
2019-03-08T02:22:51.501Z,0.75
2019-03-08T02:25:20.265Z,0.80
2019-03-08T02:27:49.182Z,0.80
2019-03-08T02:30:18.647Z,0.80
2019-03-08T02:32:47.369Z,1.00
2019-03-08T02:35:18.518Z,0.72
2019-03-08T02:37:47.267Z,0.90
2019-03-08T02:40:33.100Z,0.80
2019-03-08T02:43:03.603Z,0.98
2019-03-08T02:45:32.621Z,0.93
2019-03-08T02:48:01.345Z,0.80
2019-03-08T02:50:30.140Z,0.70
2019-03-08T02:52:59.072Z,0.67
2019-03-08T02:55:27.818Z,0.70
2019-03-08T02:57:56.645Z,0.70
2019-03-08T03:00:28.346Z,1.00
2019-03-08T03:02:57.108Z,0.70
2019-03-08T03:05:25.908Z,0.72
2019-03-08T03:07:54.700Z,0.80
2019-03-08T03:10:23.701Z,0.70
2019-03-08T03:12:52.464Z,0.80
2019-03-08T03:15:21.217Z,0.75
2019-03-08T03:17:49.949Z,0.80
2019-03-08T03:20:19.182Z,1.00
2019-03-08T03:22:47.937Z,0.90
2019-03-08T03:25:16.902Z,0.87
2019-03-08T03:27:45.630Z,0.98
2019-03-08T03:30:17.229Z,0.70
2019-03-08T03:32:46.008Z,0.90
2019-03-08T03:35:14.857Z,0.90
2019-03-08T03:37:43.591Z,0.80
2019-03-08T03:40:16.526Z,0.88
2019-03-08T03:42:45.276Z,1.00
2019-03-08T03:45:19.185Z,1.10
2019-03-08T03:47:48.217Z,1.00
2019-03-08T03:50:18.601Z,1.10
2019-03-08T03:52:47.612Z,1.00
2019-03-08T03:55:17.403Z,1.00
2019-03-08T03:57:46.109Z,0.98
2019-03-08T04:00:19.709Z,1.00
2019-03-08T04:02:48.439Z,1.10
2019-03-08T04:05:17.173Z,1.10
2019-03-08T04:07:45.929Z,1.05
2019-03-08T04:10:15.871Z,1.07
2019-03-08T04:12:44.628Z,1.07
2019-03-08T04:15:16.372Z,1.00
2019-03-08T04:17:45.615Z,1.30
2019-03-08T04:20:18.401Z,1.20
2019-03-08T04:22:47.281Z,1.40
2019-03-08T04:25:16.173Z,0.90
2019-03-08T04:27:44.940Z,0.80
2019-03-08T04:30:15.939Z,0.90
2019-03-08T04:32:44.999Z,1.00
2019-03-08T04:35:13.721Z,1.07
2019-03-08T04:37:42.482Z,1.10
2019-03-08T04:40:13.225Z,1.00
2019-03-08T04:42:41.985Z,1.07
2019-03-08T04:45:12.964Z,1.00
2019-03-08T04:47:41.702Z,0.90
2019-03-08T04:50:12.348Z,0.88
2019-03-08T04:52:41.078Z,0.98
2019-03-08T04:55:12.893Z,0.88
2019-03-08T04:57:41.630Z,0.78
2019-03-08T05:00:13.541Z,0.93
2019-03-08T05:02:42.278Z,0.95
2019-03-08T05:05:11.244Z,1.10
2019-03-08T05:07:40.044Z,0.80
2019-03-08T05:10:16.679Z,1.15
2019-03-08T05:12:45.409Z,1.05
2019-03-08T05:15:14.668Z,1.20
2019-03-08T05:17:43.389Z,1.25
2019-03-08T05:20:12.444Z,0.90
2019-03-08T05:22:41.190Z,1.15
2019-03-08T05:25:11.765Z,0.90
2019-03-08T05:27:40.494Z,1.00
2019-03-08T05:30:14.453Z,1.20
2019-03-08T05:32:43.228Z,1.30
2019-03-08T05:35:12.046Z,1.20
2019-03-08T05:37:40.801Z,1.10
2019-03-08T05:40:14.145Z,1.20
2019-03-08T05:42:42.938Z,1.10
2019-03-08T05:45:13.212Z,1.00
2019-03-08T05:47:41.974Z,0.98
2019-03-08T05:50:11.506Z,0.80
2019-03-08T05:52:40.671Z,0.90
2019-03-08T05:55:12.949Z,1.07
2019-03-08T05:57:41.904Z,0.90
2019-03-08T06:00:16.957Z,1.00
2019-03-08T06:02:45.784Z,1.00
2019-03-08T06:05:14.514Z,1.10
2019-03-08T06:07:43.268Z,1.02
2019-03-08T06:10:31.457Z,0.90
2019-03-08T06:13:01.396Z,1.02
2019-03-08T06:15:30.128Z,1.17
2019-03-08T06:17:59.393Z,1.00
2019-03-08T06:20:28.201Z,1.00
2019-03-08T06:22:57.037Z,1.30
2019-03-08T06:25:25.806Z,0.90
2019-03-08T06:27:54.537Z,0.90
2019-03-08T06:30:23.352Z,1.12
2019-03-08T06:32:52.394Z,1.10
2019-03-08T06:35:21.249Z,1.10
2019-03-08T06:37:49.985Z,1.20
2019-03-08T06:40:18.813Z,1.00
2019-03-08T06:42:47.549Z,1.00
2019-03-08T06:45:17.246Z,1.20
2019-03-08T06:47:46.354Z,0.93
2019-03-08T06:50:15.817Z,1.40
2019-03-08T06:52:44.548Z,0.95
2019-03-08T06:55:17.190Z,0.90
2019-03-08T06:57:46.062Z,0.80
2019-03-08T07:00:37.244Z,0.78
2019-03-08T07:03:07.618Z,0.78
2019-03-08T07:05:36.489Z,1.00
2019-03-08T07:08:05.620Z,0.82
2019-03-08T07:10:34.382Z,0.93
2019-03-08T07:13:03.892Z,0.90
2019-03-08T07:15:32.873Z,0.72
2019-03-08T07:18:01.645Z,0.90
2019-03-08T07:20:35.968Z,0.98
2019-03-08T07:23:28.012Z,0.80
2019-03-08T07:26:12.058Z,0.83
2019-03-08T07:28:57.590Z,0.90
2019-03-08T07:31:34.013Z,0.80
2019-03-08T07:34:23.777Z,1.00
2019-03-08T07:37:10.485Z,0.65
2019-03-08T07:39:40.857Z,0.80
2019-03-08T07:42:11.258Z,0.90
2019-03-08T07:44:47.646Z,0.85
2019-03-08T07:47:21.478Z,0.80
2019-03-08T07:50:00.840Z,0.90
2019-03-08T07:52:33.029Z,0.90
2019-03-08T07:55:03.450Z,0.90
2019-03-08T07:57:36.546Z,0.80
2019-03-08T08:00:15.650Z,0.80
2019-03-08T08:02:49.086Z,0.72
2019-03-08T08:05:35.737Z,0.95
2019-03-08T08:08:15.121Z,0.88
2019-03-08T08:11:02.209Z,0.80
2019-03-08T08:13:38.915Z,0.90
2019-03-08T08:16:09.417Z,0.70
2019-03-08T08:18:42.810Z,0.90
2019-03-08T08:21:19.037Z,1.10
2019-03-08T08:23:49.744Z,0.72
2019-03-08T08:26:20.114Z,0.80
2019-03-08T08:28:50.485Z,0.70
2019-03-08T08:31:23.448Z,1.00
2019-03-08T08:34:03.033Z,0.70
2019-03-08T08:36:36.225Z,0.70
2019-03-08T08:39:24.821Z,0.62
2019-03-08T08:42:01.334Z,0.78
2019-03-08T08:44:43.753Z,0.70
2019-03-08T08:47:14.159Z,0.60
2019-03-08T08:49:54.461Z,0.60
2019-03-08T08:52:31.417Z,0.80
2019-03-08T08:55:20.389Z,0.50
2019-03-08T08:58:02.906Z,0.70
2019-03-08T09:00:44.910Z,0.70
2019-03-08T09:03:31.575Z,0.70
2019-03-08T09:06:10.940Z,0.60
2019-03-08T09:08:47.470Z,2.47
2019-03-08T09:11:30.242Z,1.00
2019-03-08T09:14:00.646Z,0.70
2019-03-08T09:16:49.390Z,1.10
2019-03-08T09:19:36.461Z,0.65
2019-03-08T09:22:09.853Z,0.90
2019-03-08T09:24:40.233Z,0.80
2019-03-08T09:27:19.374Z,0.80
2019-03-08T09:29:49.749Z,0.90
2019-03-08T09:32:27.724Z,1.20
2019-03-08T09:35:03.789Z,1.02
2019-03-08T09:37:39.943Z,0.90
2019-03-08T09:40:15.502Z,0.80
2019-03-08T09:42:54.781Z,0.60
2019-03-08T09:45:27.824Z,0.78
2019-03-08T09:48:03.934Z,0.90
2019-03-08T09:50:34.304Z,1.20
2019-03-08T09:53:10.921Z,1.10
2019-03-08T09:55:44.433Z,0.60
2019-03-08T09:58:14.906Z,0.70
2019-03-08T10:01:01.622Z,0.90
2019-03-08T10:03:34.821Z,0.70
2019-03-08T10:06:12.405Z,0.70
2019-03-08T10:08:59.246Z,0.70
2019-03-08T10:11:29.612Z,0.98
2019-03-08T10:14:00.026Z,0.78
2019-03-08T10:16:42.517Z,0.80
2019-03-08T10:19:19.043Z,0.80
2019-03-08T10:22:05.774Z,0.90
2019-03-08T10:24:39.373Z,0.70
2019-03-08T10:27:15.954Z,0.85
2019-03-08T10:29:52.002Z,0.70
2019-03-08T10:32:37.400Z,0.80
2019-03-08T10:35:03.419Z,0.80
2019-03-08T10:37:50.189Z,0.70
2019-03-08T10:40:20.693Z,0.70
2019-03-08T10:43:00.003Z,0.70
2019-03-08T10:45:30.506Z,0.90
2019-03-08T10:48:15.750Z,0.90
2019-03-08T10:50:46.183Z,0.80
2019-03-08T10:53:28.761Z,1.47
2019-03-08T10:56:00.904Z,0.70
2019-03-08T10:58:49.426Z,0.70
2019-03-08T11:01:38.137Z,0.80
2019-03-08T11:04:27.069Z,0.70
2019-03-08T11:07:06.370Z,0.80
2019-03-08T11:09:52.936Z,0.80
2019-03-08T11:12:26.103Z,1.10
2019-03-08T11:14:59.185Z,0.55
2019-03-08T11:17:32.673Z,0.70
2019-03-08T11:20:19.641Z,0.70
2019-03-08T11:22:50.044Z,0.80
2019-03-08T11:25:36.771Z,0.70
2019-03-08T11:28:20.888Z,0.70
2019-03-08T11:30:53.571Z,0.82
2019-03-08T11:33:17.208Z,0.80
2019-03-08T11:35:47.776Z,0.98
2019-03-08T11:38:24.433Z,0.70
2019-03-08T11:40:55.561Z,0.90
2019-03-08T11:43:26.053Z,1.00
2019-03-08T11:46:08.409Z,0.90
2019-03-08T11:48:45.129Z,0.90
2019-03-08T11:51:18.540Z,0.85
2019-03-08T11:53:55.927Z,0.90
2019-03-08T11:56:20.966Z,0.80
2019-03-08T11:58:54.550Z,2.52
2019-03-08T12:01:24.929Z,0.80
2019-03-08T12:03:58.069Z,0.80
2019-03-08T12:06:37.481Z,0.70
2019-03-08T12:09:26.761Z,0.90
2019-03-08T12:11:59.865Z,0.80
2019-03-08T12:14:42.605Z,0.93
2019-03-08T12:17:29.477Z,0.90
2019-03-08T12:19:59.882Z,0.93
2019-03-08T12:22:36.174Z,0.90
2019-03-08T12:25:14.275Z,0.90
2019-03-08T12:28:01.006Z,1.02
2019-03-08T12:30:37.430Z,0.90
2019-03-08T12:33:23.153Z,0.80
2019-03-08T12:35:56.265Z,1.00
2019-03-08T12:38:38.688Z,0.85
2019-03-08T12:41:17.593Z,1.20
2019-03-08T12:43:53.693Z,0.80
2019-03-08T12:46:29.869Z,1.15
2019-03-08T12:49:09.064Z,1.00
2019-03-08T12:51:39.461Z,0.80
2019-03-08T12:54:12.569Z,0.60
2019-03-08T12:56:45.770Z,0.80
2019-03-08T12:59:16.149Z,0.80
2019-03-08T13:01:52.584Z,0.90
2019-03-08T13:04:22.958Z,0.80
2019-03-08T13:06:56.341Z,0.90
2019-03-08T13:09:41.686Z,0.90
2019-03-08T13:12:11.550Z,0.90
2019-03-08T13:14:40.298Z,1.00
2019-03-08T13:17:09.129Z,1.20
2019-03-08T13:19:38.053Z,1.20
2019-03-08T13:22:06.809Z,0.98
2019-03-08T13:24:35.769Z,1.45
2019-03-08T13:27:04.576Z,1.37
2019-03-08T13:29:33.410Z,1.10
2019-03-08T13:32:02.145Z,1.40
2019-03-08T13:34:31.116Z,0.90
2019-03-08T13:36:59.941Z,1.30
2019-03-08T13:39:28.776Z,1.00
2019-03-08T13:41:57.672Z,0.95
2019-03-08T13:44:26.445Z,1.15
2019-03-08T13:46:55.182Z,1.15
2019-03-08T13:49:24.153Z,1.10
2019-03-08T13:51:52.885Z,1.10
2019-03-08T13:54:21.717Z,1.00
2019-03-08T13:56:50.453Z,1.20
2019-03-08T13:59:19.209Z,1.00
2019-03-08T14:01:47.943Z,1.40
2019-03-08T14:04:16.714Z,1.10
2019-03-08T14:06:45.468Z,0.93
2019-03-08T14:09:15.473Z,0.90
2019-03-08T14:11:44.354Z,1.00
2019-03-08T14:14:13.090Z,1.30
2019-03-08T14:16:41.851Z,1.20
2019-03-08T14:19:10.661Z,1.70
2019-03-08T14:21:39.425Z,1.20
2019-03-08T14:24:08.213Z,1.10
2019-03-08T14:26:36.923Z,1.07
2019-03-08T14:29:05.649Z,1.12
2019-03-08T14:31:39.027Z,1.27
2019-03-08T14:34:10.794Z,1.20
2019-03-08T14:36:39.176Z,1.25
2019-03-08T14:39:08.890Z,1.30
2019-03-08T14:41:39.288Z,1.20
2019-03-08T14:44:10.069Z,1.30
2019-03-08T14:46:43.472Z,1.20
2019-03-08T14:49:12.264Z,1.00
2019-03-08T14:51:41.113Z,1.22
2019-03-08T14:54:10.084Z,1.10
2019-03-08T14:56:39.714Z,1.20
2019-03-08T14:59:11.331Z,1.32
2019-03-08T15:01:39.931Z,1.30
2019-03-08T15:04:09.073Z,1.10
2019-03-08T15:06:37.872Z,1.20
2019-03-08T15:09:10.069Z,1.20
2019-03-08T15:11:38.801Z,1.45
2019-03-08T15:14:07.633Z,1.32
2019-03-08T15:16:39.113Z,1.10
2019-03-08T15:19:07.821Z,1.30
2019-03-08T15:21:37.141Z,1.40
2019-03-08T15:24:06.641Z,1.30
2019-03-08T15:26:35.473Z,1.40
2019-03-08T15:29:04.277Z,1.12
2019-03-08T15:31:33.122Z,1.40
2019-03-08T15:34:02.849Z,1.10
2019-03-08T15:36:31.549Z,1.00
2019-03-08T15:39:00.287Z,1.45
2019-03-08T15:41:29.165Z,1.10
2019-03-08T15:43:57.918Z,1.20
2019-03-08T15:46:26.995Z,1.50
2019-03-08T15:48:56.085Z,1.12
2019-03-08T15:51:25.603Z,1.60
2019-03-08T15:53:55.234Z,1.60
2019-03-08T15:56:23.997Z,1.70
2019-03-08T15:58:52.724Z,1.45
2019-03-08T16:01:21.721Z,1.10
2019-03-08T16:03:50.477Z,1.20
2019-03-08T16:06:19.770Z,1.30
2019-03-08T16:08:48.713Z,1.40
2019-03-08T16:11:17.446Z,1.22
2019-03-08T16:13:46.202Z,1.10
2019-03-08T16:16:14.933Z,1.02
2019-03-08T16:18:46.897Z,1.15
2019-03-08T16:21:14.399Z,1.00
2019-03-08T16:23:43.294Z,1.00
2019-03-08T16:26:12.127Z,1.00
2019-03-08T16:28:40.949Z,1.12
2019-03-08T16:31:17.253Z,2.30
2019-03-08T16:33:47.306Z,0.95
2019-03-08T16:36:19.857Z,1.20
2019-03-08T16:38:53.083Z,1.57
2019-03-08T16:41:26.269Z,2.00
2019-03-08T16:43:59.285Z,1.27
2019-03-08T16:46:35.369Z,1.40
2019-03-08T16:49:05.490Z,1.35
2019-03-08T16:51:38.568Z,1.20
2019-03-08T16:54:08.621Z,1.12
2019-03-08T16:56:55.265Z,1.10
2019-03-08T16:59:28.386Z,1.00
2019-03-08T17:01:58.785Z,1.12
2019-03-08T17:04:41.509Z,1.20
2019-03-08T17:07:14.521Z,1.20
2019-03-08T17:09:44.920Z,1.25
2019-03-08T17:12:21.310Z,1.30
2019-03-08T17:15:04.029Z,1.30
2019-03-08T17:17:40.455Z,1.32
2019-03-08T17:20:17.458Z,1.30
2019-03-08T17:22:54.098Z,1.47
2019-03-08T17:25:27.698Z,1.43
2019-03-08T17:27:58.057Z,1.30
2019-03-08T17:30:28.466Z,1.27
2019-03-08T17:32:58.847Z,1.17
2019-03-08T17:35:38.231Z,1.20
2019-03-08T17:38:20.889Z,1.30
2019-03-08T17:40:57.361Z,1.30
2019-03-08T17:43:27.762Z,1.40
2019-03-08T17:46:10.413Z,1.60
2019-03-08T17:48:57.073Z,1.50
2019-03-08T17:51:27.475Z,1.47
2019-03-08T17:54:13.194Z,1.50
2019-03-08T17:57:00.173Z,1.27
2019-03-08T17:59:46.910Z,1.80
2019-03-08T18:02:33.633Z,1.30
2019-03-08T18:05:16.035Z,1.30
2019-03-08T18:07:46.433Z,1.10
2019-03-08T18:10:22.727Z,1.30
2019-03-08T18:13:05.344Z,1.25
2019-03-08T18:15:35.722Z,1.40
2019-03-08T18:18:06.114Z,1.42
2019-03-08T18:20:55.025Z,1.25
2019-03-08T18:23:31.178Z,1.20
2019-03-08T18:26:01.558Z,1.40
2019-03-08T18:28:32.063Z,1.30
2019-03-08T18:31:05.625Z,1.00
2019-03-08T18:33:51.421Z,1.22
2019-03-08T18:36:27.461Z,1.40
2019-03-08T18:39:03.397Z,1.35
2019-03-08T18:41:39.786Z,1.37
2019-03-08T18:44:10.186Z,1.15
2019-03-08T18:46:49.172Z,1.52
2019-03-08T18:49:19.577Z,1.20
2019-03-08T18:51:56.212Z,1.25
2019-03-08T18:54:41.998Z,1.20
2019-03-08T18:57:24.681Z,1.30
2019-03-08T18:59:57.985Z,2.40
2019-03-08T19:02:28.453Z,1.43
2019-03-08T19:05:15.315Z,1.33
2019-03-08T19:08:02.075Z,1.57
2019-03-08T19:10:38.520Z,1.90
2019-03-08T19:13:20.853Z,1.50
2019-03-08T19:16:00.366Z,1.60
2019-03-08T19:18:45.912Z,1.50
2019-03-08T19:21:28.133Z,1.20
2019-03-08T19:24:10.057Z,1.50
2019-03-08T19:26:40.640Z,1.60
2019-03-08T19:29:11.002Z,1.37
2019-03-08T19:31:44.321Z,1.60
2019-03-08T19:34:30.153Z,1.57
2019-03-08T19:37:12.761Z,1.60
2019-03-08T19:39:52.159Z,1.40
2019-03-08T19:42:31.735Z,1.50
2019-03-08T19:45:04.572Z,1.50
2019-03-08T19:47:44.287Z,1.60
2019-03-08T19:50:32.681Z,1.40
2019-03-08T19:53:03.239Z,1.60
2019-03-08T19:55:33.720Z,1.52
2019-03-08T19:58:04.168Z,1.62
2019-03-08T20:00:37.327Z,1.40
2019-03-08T20:03:22.806Z,1.80
2019-03-08T20:06:10.359Z,1.80
2019-03-08T20:08:52.784Z,1.95
2019-03-08T20:11:39.498Z,1.50
2019-03-08T20:14:16.178Z,1.60
2019-03-08T20:17:02.861Z,1.60
2019-03-08T20:19:33.696Z,1.70
2019-03-08T20:22:04.061Z,1.40
2019-03-08T20:24:50.693Z,1.82
2019-03-08T20:27:30.329Z,1.50
2019-03-08T20:30:03.676Z,1.60
2019-03-08T20:32:49.145Z,1.50
2019-03-08T20:35:25.709Z,1.62
2019-03-08T20:38:12.334Z,1.23
2019-03-08T20:40:45.618Z,1.17
2019-03-08T20:43:19.155Z,1.17
2019-03-08T20:45:49.554Z,1.40
2019-03-08T20:48:18.369Z,1.10
2019-03-08T20:50:47.109Z,1.22
2019-03-08T20:53:15.865Z,1.10
2019-03-08T20:55:44.961Z,1.05
2019-03-08T20:58:13.789Z,1.20
2019-03-08T21:00:42.690Z,1.20
2019-03-08T21:03:11.590Z,1.50
2019-03-08T21:05:40.334Z,1.62
2019-03-08T21:08:09.266Z,1.50
2019-03-08T21:10:38.073Z,1.30
2019-03-08T21:13:06.935Z,1.30
2019-03-08T21:15:35.705Z,1.43
2019-03-08T21:18:04.622Z,1.37
2019-03-08T21:20:33.393Z,1.27
2019-03-08T21:23:02.262Z,1.17
2019-03-08T21:25:31.088Z,1.10
2019-03-08T21:27:59.933Z,1.10
2019-03-08T21:30:28.766Z,1.30
2019-03-08T21:32:57.528Z,1.12
2019-03-08T21:35:26.855Z,1.45
2019-03-08T21:37:55.544Z,1.27
2019-03-08T21:40:24.310Z,1.22
2019-03-08T21:42:53.193Z,1.10
2019-03-08T21:45:21.938Z,1.07
2019-03-08T21:47:50.739Z,1.30
2019-03-08T21:50:19.678Z,1.30
2019-03-08T21:52:48.466Z,1.27
2019-03-08T21:55:17.465Z,1.40
2019-03-08T21:57:46.457Z,1.20
2019-03-08T22:00:17.403Z,1.00
2019-03-08T22:02:46.287Z,1.30
2019-03-08T22:05:16.843Z,1.10
2019-03-08T22:07:45.622Z,1.27
2019-03-08T22:10:19.245Z,1.50
2019-03-08T22:12:48.168Z,1.20
2019-03-08T22:15:16.959Z,1.20
2019-03-08T22:17:45.980Z,1.80
2019-03-08T22:20:14.762Z,1.35
2019-03-08T22:22:43.490Z,2.08
2019-03-08T22:25:12.374Z,2.08
2019-03-08T22:27:41.441Z,2.33
2019-03-08T22:30:13.180Z,2.27
2019-03-08T22:32:41.937Z,2.52
2019-03-08T22:35:10.681Z,2.22
2019-03-08T22:37:39.422Z,2.45
2019-03-08T22:40:09.753Z,2.17
2019-03-08T22:42:40.048Z,2.33
2019-03-08T22:45:10.817Z,1.80
2019-03-08T22:47:39.581Z,1.95
2019-03-08T22:50:15.108Z,1.80
2019-03-08T22:52:43.872Z,1.85
2019-03-08T22:55:14.408Z,1.82
2019-03-08T22:57:43.130Z,1.70
2019-03-08T23:00:54.149Z,1.62
2019-03-08T23:03:24.512Z,1.75
2019-03-08T23:05:53.329Z,1.70
2019-03-08T23:08:22.060Z,1.37
2019-03-08T23:10:50.882Z,1.62
2019-03-08T23:13:19.717Z,1.40
2019-03-08T23:15:48.477Z,1.22
2019-03-08T23:18:17.327Z,1.50
2019-03-08T23:20:46.140Z,1.40
2019-03-08T23:23:15.249Z,1.37
2019-03-08T23:25:44.012Z,1.25
2019-03-08T23:28:26.346Z,1.20
2019-03-08T23:30:59.745Z,0.98
2019-03-08T23:33:28.617Z,1.20
2019-03-08T23:35:57.380Z,1.40
2019-03-08T23:38:26.185Z,1.15
2019-03-08T23:40:55.978Z,1.07
2019-03-08T23:43:24.675Z,1.40
2019-03-08T23:45:53.749Z,1.20
2019-03-08T23:48:22.478Z,1.30
2019-03-08T23:50:51.243Z,1.27
2019-03-08T23:53:19.974Z,1.45
2019-03-08T23:55:48.737Z,1.40
2019-03-08T23:58:17.465Z,1.22
